Portada
METAR-TAF:

METAR-TAF

Aeroports :

Taraz, Kazakhstan

latitud: 42-51-13N, longitud: 071-18-13E, altitud: 666 m

Observació

L'informe es va fer fa 38 minuts, a les 10:30 UTC
Vent 8 kt del Nord/Nord-Est, variant entre Nord i Est/Nord-Est
Temperatura 17°C
Humitat 25%
Pressió 1012 hPa
Visibilitat 10 km o més

METAR: UADD 301030Z 02004MPS 350V060 9999 NSC 17/M03 Q1012 R13/0///65 NOSIG RMK QFE702/0936

Hora: 17:08 (11:08 UTC)

Pronòstic

L'informe es va fer fa 3 hores i 8 minuts, a les 08:00 UTC
Pronòstic vàlid del 30 a les 09 UTC al 30 a les 18 UTC
Vent 10 kt del Nord-Est amb ràfegues de 19 kt
Visibilitat 10 km o més
Núvols disperses a una alçada de 10000 ft

TAF: UADD 300800Z 3009/3018 04005G10MPS 9999 SCT100

Observacions i pronòstics meteorològics de més de 4000 aeroports (METAR i TAF).

Les estacions disponibles són els punts grocs i vermells al mapa.

Posi el ratolí al punt desitjat per veure el nom de l'estació.

Feu clic per veure les observacions i els pronòstics meteorològics.

Per canviar el mapa: feu clic els botons verds amb una creu de color negre per apropar; al botó verd amb un guió per allunyar la imatge; o en les fletxes verdes per a mapes adjacents.


METAR-TAF: